sensor_id;sensor_type;location;lat;lon;timestamp;temperature;humidity
39401;DHT22;54391;50.000;7.360;2022-07-12T00:00:05;15.00;84.30
39401;DHT22;54391;50.000;7.360;2022-07-12T00:02:33;15.00;84.00
39401;DHT22;54391;50.000;7.360;2022-07-12T00:05:00;15.00;83.70
39401;DHT22;54391;50.000;7.360;2022-07-12T00:07:30;15.10;83.30
39401;DHT22;54391;50.000;7.360;2022-07-12T00:09:57;15.00;84.00
39401;DHT22;54391;50.000;7.360;2022-07-12T00:12:28;15.00;84.00
39401;DHT22;54391;50.000;7.360;2022-07-12T00:14:56;15.00;84.80
39401;DHT22;54391;50.000;7.360;2022-07-12T00:17:23;15.00;83.60
39401;DHT22;54391;50.000;7.360;2022-07-12T00:19:50;15.00;84.90
39401;DHT22;54391;50.000;7.360;2022-07-12T00:22:18;15.00;84.00
39401;DHT22;54391;50.000;7.360;2022-07-12T00:24:47;14.90;84.80
39401;DHT22;54391;50.000;7.360;2022-07-12T00:27:14;14.90;84.10
39401;DHT22;54391;50.000;7.360;2022-07-12T00:29:42;14.90;84.90
39401;DHT22;54391;50.000;7.360;2022-07-12T00:32:09;15.00;84.70
39401;DHT22;54391;50.000;7.360;2022-07-12T00:34:37;14.90;84.90
39401;DHT22;54391;50.000;7.360;2022-07-12T00:37:04;14.90;83.70
39401;DHT22;54391;50.000;7.360;2022-07-12T00:39:32;14.90;84.00
39401;DHT22;54391;50.000;7.360;2022-07-12T00:42:00;14.90;84.10
39401;DHT22;54391;50.000;7.360;2022-07-12T00:44:29;14.90;83.90
39401;DHT22;54391;50.000;7.360;2022-07-12T00:46:57;15.00;82.90
39401;DHT22;54391;50.000;7.360;2022-07-12T00:49:25;15.00;83.20
39401;DHT22;54391;50.000;7.360;2022-07-12T00:51:52;15.00;82.80
39401;DHT22;54391;50.000;7.360;2022-07-12T00:54:20;15.00;82.30
39401;DHT22;54391;50.000;7.360;2022-07-12T00:56:47;15.00;81.40
39401;DHT22;54391;50.000;7.360;2022-07-12T00:59:16;15.00;81.90
39401;DHT22;54391;50.000;7.360;2022-07-12T01:01:45;14.90;82.70
39401;DHT22;54391;50.000;7.360;2022-07-12T01:04:13;14.80;82.80
39401;DHT22;54391;50.000;7.360;2022-07-12T01:06:44;14.90;82.30
39401;DHT22;54391;50.000;7.360;2022-07-12T01:09:12;14.90;82.30
39401;DHT22;54391;50.000;7.360;2022-07-12T01:11:39;14.90;82.10
39401;DHT22;54391;50.000;7.360;2022-07-12T01:14:08;14.80;83.40
39401;DHT22;54391;50.000;7.360;2022-07-12T01:16:37;14.60;83.80
39401;DHT22;54391;50.000;7.360;2022-07-12T01:19:06;14.70;83.50
39401;DHT22;54391;50.000;7.360;2022-07-12T01:21:37;14.50;83.60
39401;DHT22;54391;50.000;7.360;2022-07-12T01:24:07;14.40;83.60
39401;DHT22;54391;50.000;7.360;2022-07-12T01:26:36;14.30;83.90
39401;DHT22;54391;50.000;7.360;2022-07-12T01:29:05;14.30;84.80
39401;DHT22;54391;50.000;7.360;2022-07-12T01:31:34;14.10;86.00
39401;DHT22;54391;50.000;7.360;2022-07-12T01:34:02;14.10;87.80
39401;DHT22;54391;50.000;7.360;2022-07-12T01:36:29;14.10;86.50
39401;DHT22;54391;50.000;7.360;2022-07-12T01:38:57;14.10;86.90
39401;DHT22;54391;50.000;7.360;2022-07-12T01:41:26;14.00;87.00
39401;DHT22;54391;50.000;7.360;2022-07-12T01:43:54;14.00;87.40
39401;DHT22;54391;50.000;7.360;2022-07-12T01:46:22;14.00;88.10
39401;DHT22;54391;50.000;7.360;2022-07-12T01:48:49;13.90;88.90
39401;DHT22;54391;50.000;7.360;2022-07-12T01:51:17;13.90;89.60
39401;DHT22;54391;50.000;7.360;2022-07-12T01:53:44;13.90;88.90
39401;DHT22;54391;50.000;7.360;2022-07-12T01:56:12;13.70;89.40
39401;DHT22;54391;50.000;7.360;2022-07-12T01:58:41;13.80;89.70
39401;DHT22;54391;50.000;7.360;2022-07-12T02:01:10;13.70;91.30
39401;DHT22;54391;50.000;7.360;2022-07-12T02:03:38;13.60;93.40
39401;DHT22;54391;50.000;7.360;2022-07-12T02:06:05;13.50;93.90
39401;DHT22;54391;50.000;7.360;2022-07-12T02:08:33;13.50;94.60
39401;DHT22;54391;50.000;7.360;2022-07-12T02:11:00;13.50;96.00
39401;DHT22;54391;50.000;7.360;2022-07-12T02:13:29;13.50;96.50
39401;DHT22;54391;50.000;7.360;2022-07-12T02:15:58;13.60;96.70
39401;DHT22;54391;50.000;7.360;2022-07-12T02:18:27;13.60;97.20
39401;DHT22;54391;50.000;7.360;2022-07-12T02:20:55;13.70;97.00
39401;DHT22;54391;50.000;7.360;2022-07-12T02:23:22;13.70;96.50
39401;DHT22;54391;50.000;7.360;2022-07-12T02:25:49;13.80;95.70
39401;DHT22;54391;50.000;7.360;2022-07-12T02:28:17;13.80;96.10
39401;DHT22;54391;50.000;7.360;2022-07-12T02:30:44;13.90;94.80
39401;DHT22;54391;50.000;7.360;2022-07-12T02:33:14;13.80;95.00
39401;DHT22;54391;50.000;7.360;2022-07-12T02:35:41;13.80;94.50
39401;DHT22;54391;50.000;7.360;2022-07-12T02:38:09;13.80;94.80
39401;DHT22;54391;50.000;7.360;2022-07-12T02:40:37;13.80;94.40
39401;DHT22;54391;50.000;7.360;2022-07-12T02:43:23;13.80;94.20
39401;DHT22;54391;50.000;7.360;2022-07-12T02:45:51;13.90;94.20
39401;DHT22;54391;50.000;7.360;2022-07-12T02:48:21;13.80;94.90
39401;DHT22;54391;50.000;7.360;2022-07-12T02:50:49;13.90;94.40
39401;DHT22;54391;50.000;7.360;2022-07-12T02:53:16;13.80;94.00
39401;DHT22;54391;50.000;7.360;2022-07-12T02:55:44;13.90;93.00
39401;DHT22;54391;50.000;7.360;2022-07-12T02:58:11;13.90;94.10
39401;DHT22;54391;50.000;7.360;2022-07-12T03:00:39;13.80;93.00
39401;DHT22;54391;50.000;7.360;2022-07-12T03:03:06;13.80;93.50
39401;DHT22;54391;50.000;7.360;2022-07-12T03:05:36;13.80;93.90
39401;DHT22;54391;50.000;7.360;2022-07-12T03:08:04;13.80;94.40
39401;DHT22;54391;50.000;7.360;2022-07-12T03:10:32;13.80;95.50
39401;DHT22;54391;50.000;7.360;2022-07-12T03:12:59;13.70;95.90
39401;DHT22;54391;50.000;7.360;2022-07-12T03:15:28;13.70;95.80
39401;DHT22;54391;50.000;7.360;2022-07-12T03:17:57;13.70;95.10
39401;DHT22;54391;50.000;7.360;2022-07-12T03:20:25;13.70;96.20
39401;DHT22;54391;50.000;7.360;2022-07-12T03:22:54;13.70;96.40
39401;DHT22;54391;50.000;7.360;2022-07-12T03:25:22;13.70;96.90
39401;DHT22;54391;50.000;7.360;2022-07-12T03:27:50;13.70;96.00
39401;DHT22;54391;50.000;7.360;2022-07-12T03:30:17;13.70;96.50
39401;DHT22;54391;50.000;7.360;2022-07-12T03:32:45;13.70;97.60
39401;DHT22;54391;50.000;7.360;2022-07-12T03:35:12;13.70;97.70
39401;DHT22;54391;50.000;7.360;2022-07-12T03:37:42;13.70;96.90
39401;DHT22;54391;50.000;7.360;2022-07-12T03:40:12;13.70;97.80
39401;DHT22;54391;50.000;7.360;2022-07-12T03:42:40;13.70;98.20
39401;DHT22;54391;50.000;7.360;2022-07-12T03:45:09;13.60;97.20
39401;DHT22;54391;50.000;7.360;2022-07-12T03:47:37;13.60;97.40
39401;DHT22;54391;50.000;7.360;2022-07-12T03:50:06;13.60;98.00
39401;DHT22;54391;50.000;7.360;2022-07-12T03:52:34;13.60;98.00
39401;DHT22;54391;50.000;7.360;2022-07-12T03:55:02;13.60;98.00
39401;DHT22;54391;50.000;7.360;2022-07-12T03:57:31;13.60;97.20
39401;DHT22;54391;50.000;7.360;2022-07-12T03:59:59;13.60;97.40
39401;DHT22;54391;50.000;7.360;2022-07-12T04:02:30;13.50;97.50
39401;DHT22;54391;50.000;7.360;2022-07-12T04:04:58;13.50;98.10
39401;DHT22;54391;50.000;7.360;2022-07-12T04:07:25;13.50;98.40
39401;DHT22;54391;50.000;7.360;2022-07-12T04:09:53;13.50;99.90
39401;DHT22;54391;50.000;7.360;2022-07-12T04:12:20;13.50;99.90
39401;DHT22;54391;50.000;7.360;2022-07-12T04:14:49;13.50;99.00
39401;DHT22;54391;50.000;7.360;2022-07-12T04:17:17;13.50;99.90
39401;DHT22;54391;50.000;7.360;2022-07-12T04:19:44;13.60;99.90
39401;DHT22;54391;50.000;7.360;2022-07-12T04:22:12;13.60;99.90
39401;DHT22;54391;50.000;7.360;2022-07-12T04:24:39;13.60;99.90
39401;DHT22;54391;50.000;7.360;2022-07-12T04:27:07;13.70;99.00
39401;DHT22;54391;50.000;7.360;2022-07-12T04:29:34;13.70;99.60
39401;DHT22;54391;50.000;7.360;2022-07-12T04:32:04;13.70;99.90
39401;DHT22;54391;50.000;7.360;2022-07-12T04:34:31;13.70;99.90
39401;DHT22;54391;50.000;7.360;2022-07-12T04:36:58;13.80;99.90
39401;DHT22;54391;50.000;7.360;2022-07-12T04:39:27;13.80;99.90
39401;DHT22;54391;50.000;7.360;2022-07-12T04:41:55;13.90;99.90
39401;DHT22;54391;50.000;7.360;2022-07-12T04:44:22;13.90;99.90
39401;DHT22;54391;50.000;7.360;2022-07-12T04:46:50;14.00;94.10
39401;DHT22;54391;50.000;7.360;2022-07-12T04:49:19;14.00;91.80
39401;DHT22;54391;50.000;7.360;2022-07-12T04:51:46;14.10;88.70
39401;DHT22;54391;50.000;7.360;2022-07-12T04:54:14;14.00;87.70
39401;DHT22;54391;50.000;7.360;2022-07-12T04:56:42;13.80;88.20
39401;DHT22;54391;50.000;7.360;2022-07-12T04:59:09;13.80;89.20
39401;DHT22;54391;50.000;7.360;2022-07-12T05:01:36;13.90;89.50
39401;DHT22;54391;50.000;7.360;2022-07-12T05:04:04;13.80;91.70
39401;DHT22;54391;50.000;7.360;2022-07-12T05:06:33;13.90;89.30
39401;DHT22;54391;50.000;7.360;2022-07-12T05:09:00;13.90;89.80
39401;DHT22;54391;50.000;7.360;2022-07-12T05:11:29;14.00;89.70
39401;DHT22;54391;50.000;7.360;2022-07-12T05:13:58;14.10;89.70
39401;DHT22;54391;50.000;7.360;2022-07-12T05:16:25;14.10;89.10
39401;DHT22;54391;50.000;7.360;2022-07-12T05:18:53;14.00;90.00
39401;DHT22;54391;50.000;7.360;2022-07-12T05:21:20;14.20;90.00
39401;DHT22;54391;50.000;7.360;2022-07-12T05:23:50;14.50;90.70
39401;DHT22;54391;50.000;7.360;2022-07-12T05:26:19;15.10;85.40
39401;DHT22;54391;50.000;7.360;2022-07-12T05:28:46;15.30;83.20
39401;DHT22;54391;50.000;7.360;2022-07-12T05:31:13;15.60;78.10
39401;DHT22;54391;50.000;7.360;2022-07-12T05:33:41;16.00;76.50
39401;DHT22;54391;50.000;7.360;2022-07-12T05:36:08;16.50;70.10
39401;DHT22;54391;50.000;7.360;2022-07-12T05:38:36;16.60;70.90
39401;DHT22;54391;50.000;7.360;2022-07-12T05:41:05;16.80;68.70
39401;DHT22;54391;50.000;7.360;2022-07-12T05:43:32;17.20;64.20
39401;DHT22;54391;50.000;7.360;2022-07-12T05:46:00;17.60;59.10
39401;DHT22;54391;50.000;7.360;2022-07-12T05:48:29;17.70;58.50
39401;DHT22;54391;50.000;7.360;2022-07-12T05:50:56;18.20;54.50
39401;DHT22;54391;50.000;7.360;2022-07-12T05:53:44;18.70;50.00
39401;DHT22;54391;50.000;7.360;2022-07-12T05:56:12;19.60;44.10
39401;DHT22;54391;50.000;7.360;2022-07-12T05:58:40;19.70;43.60
39401;DHT22;54391;50.000;7.360;2022-07-12T06:01:08;20.50;39.90
39401;DHT22;54391;50.000;7.360;2022-07-12T06:03:35;21.00;37.50
39401;DHT22;54391;50.000;7.360;2022-07-12T06:06:03;21.40;32.20
39401;DHT22;54391;50.000;7.360;2022-07-12T06:08:31;21.60;30.70
39401;DHT22;54391;50.000;7.360;2022-07-12T06:10:58;21.90;27.80
39401;DHT22;54391;50.000;7.360;2022-07-12T06:13:29;22.00;24.20
39401;DHT22;54391;50.000;7.360;2022-07-12T06:15:56;22.50;22.80
39401;DHT22;54391;50.000;7.360;2022-07-12T06:18:24;22.60;22.80
39401;DHT22;54391;50.000;7.360;2022-07-12T06:20:51;23.00;20.00
39401;DHT22;54391;50.000;7.360;2022-07-12T06:23:20;23.30;19.60
39401;DHT22;54391;50.000;7.360;2022-07-12T06:25:47;23.70;17.90
39401;DHT22;54391;50.000;7.360;2022-07-12T06:28:14;23.80;18.30
39401;DHT22;54391;50.000;7.360;2022-07-12T06:30:44;24.00;17.60
39401;DHT22;54391;50.000;7.360;2022-07-12T06:33:12;24.80;14.70
39401;DHT22;54391;50.000;7.360;2022-07-12T06:35:39;24.70;14.50
39401;DHT22;54391;50.000;7.360;2022-07-12T06:38:07;24.80;14.50
39401;DHT22;54391;50.000;7.360;2022-07-12T06:40:34;25.50;12.20
39401;DHT22;54391;50.000;7.360;2022-07-12T06:43:01;24.40;13.50
39401;DHT22;54391;50.000;7.360;2022-07-12T06:47:59;26.10;10.20
39401;DHT22;54391;50.000;7.360;2022-07-12T06:50:28;25.80;9.50
39401;DHT22;54391;50.000;7.360;2022-07-12T06:52:55;26.20;9.60
39401;DHT22;54391;50.000;7.360;2022-07-12T06:55:23;26.80;8.50
39401;DHT22;54391;50.000;7.360;2022-07-12T06:57:50;27.50;6.00
39401;DHT22;54391;50.000;7.360;2022-07-12T07:00:17;27.50;5.70
39401;DHT22;54391;50.000;7.360;2022-07-12T07:02:45;27.20;7.20
39401;DHT22;54391;50.000;7.360;2022-07-12T07:05:14;26.50;6.00
39401;DHT22;54391;50.000;7.360;2022-07-12T07:07:43;26.70;5.40
39401;DHT22;54391;50.000;7.360;2022-07-12T07:10:11;26.90;5.80
39401;DHT22;54391;50.000;7.360;2022-07-12T07:12:38;26.80;5.10
39401;DHT22;54391;50.000;7.360;2022-07-12T07:15:06;27.50;3.30
39401;DHT22;54391;50.000;7.360;2022-07-12T07:17:34;26.00;3.80
39401;DHT22;54391;50.000;7.360;2022-07-12T07:20:01;27.80;6.50
39401;DHT22;54391;50.000;7.360;2022-07-12T07:22:31;25.50;5.70
39401;DHT22;54391;50.000;7.360;2022-07-12T07:24:58;24.90;5.70
39401;DHT22;54391;50.000;7.360;2022-07-12T07:27:26;25.20;4.90
39401;DHT22;54391;50.000;7.360;2022-07-12T07:29:53;26.00;4.90
39401;DHT22;54391;50.000;7.360;2022-07-12T07:32:38;25.50;5.40
39401;DHT22;54391;50.000;7.360;2022-07-12T07:35:06;24.50;6.30
39401;DHT22;54391;50.000;7.360;2022-07-12T07:37:35;25.00;4.80
39401;DHT22;54391;50.000;7.360;2022-07-12T07:40:04;25.80;4.70
39401;DHT22;54391;50.000;7.360;2022-07-12T07:42:32;26.30;3.20
39401;DHT22;54391;50.000;7.360;2022-07-12T07:44:59;26.40;3.40
39401;DHT22;54391;50.000;7.360;2022-07-12T07:47:28;26.60;1.80
39401;DHT22;54391;50.000;7.360;2022-07-12T07:49:55;26.60;2.10
39401;DHT22;54391;50.000;7.360;2022-07-12T07:52:23;26.10;2.10
39401;DHT22;54391;50.000;7.360;2022-07-12T07:54:52;26.20;3.00
39401;DHT22;54391;50.000;7.360;2022-07-12T07:57:19;27.00;3.00
39401;DHT22;54391;50.000;7.360;2022-07-12T07:59:46;27.40;1.10
39401;DHT22;54391;50.000;7.360;2022-07-12T08:02:14;28.00;1.30
39401;DHT22;54391;50.000;7.360;2022-07-12T08:04:41;27.40;1.70
39401;DHT22;54391;50.000;7.360;2022-07-12T08:07:09;27.70;1.10
39401;DHT22;54391;50.000;7.360;2022-07-12T08:09:36;27.90;1.80
39401;DHT22;54391;50.000;7.360;2022-07-12T08:12:07;28.20;1.00
39401;DHT22;54391;50.000;7.360;2022-07-12T08:14:35;27.10;1.00
39401;DHT22;54391;50.000;7.360;2022-07-12T08:17:03;27.40;1.00
39401;DHT22;54391;50.000;7.360;2022-07-12T08:19:30;27.30;1.10
39401;DHT22;54391;50.000;7.360;2022-07-12T08:21:58;26.70;1.80
39401;DHT22;54391;50.000;7.360;2022-07-12T08:24:26;26.60;2.00
39401;DHT22;54391;50.000;7.360;2022-07-12T08:26:53;27.30;1.00
39401;DHT22;54391;50.000;7.360;2022-07-12T08:29:22;26.90;2.00
39401;DHT22;54391;50.000;7.360;2022-07-12T08:31:50;27.20;1.90
39401;DHT22;54391;50.000;7.360;2022-07-12T08:34:17;26.60;1.00
39401;DHT22;54391;50.000;7.360;2022-07-12T08:36:45;26.70;1.00
39401;DHT22;54391;50.000;7.360;2022-07-12T08:39:12;27.20;1.00
39401;DHT22;54391;50.000;7.360;2022-07-12T08:41:39;27.90;1.00
39401;DHT22;54391;50.000;7.360;2022-07-12T08:44:07;27.40;1.00
39401;DHT22;54391;50.000;7.360;2022-07-12T08:46:36;27.90;1.00
39401;DHT22;54391;50.000;7.360;2022-07-12T08:49:05;27.10;1.00
39401;DHT22;54391;50.000;7.360;2022-07-12T08:51:33;28.10;1.00
39401;DHT22;54391;50.000;7.360;2022-07-12T08:54:08;28.70;1.00
39401;DHT22;54391;50.000;7.360;2022-07-12T08:56:37;28.90;1.00
39401;DHT22;54391;50.000;7.360;2022-07-12T08:59:13;29.20;1.00
39401;DHT22;54391;50.000;7.360;2022-07-12T09:01:44;28.80;1.00
39401;DHT22;54391;50.000;7.360;2022-07-12T09:04:14;27.60;1.00
39401;DHT22;54391;50.000;7.360;2022-07-12T09:06:42;26.90;1.00
39401;DHT22;54391;50.000;7.360;2022-07-12T09:09:09;27.10;1.00
39401;DHT22;54391;50.000;7.360;2022-07-12T09:11:38;27.90;1.00
39401;DHT22;54391;50.000;7.360;2022-07-12T09:14:06;28.40;1.00
39401;DHT22;54391;50.000;7.360;2022-07-12T09:16:34;29.30;1.00
39401;DHT22;54391;50.000;7.360;2022-07-12T09:19:21;28.70;1.00
39401;DHT22;54391;50.000;7.360;2022-07-12T09:21:50;28.80;1.00
39401;DHT22;54391;50.000;7.360;2022-07-12T09:24:18;29.20;1.00
39401;DHT22;54391;50.000;7.360;2022-07-12T09:26:46;28.80;1.00
39401;DHT22;54391;50.000;7.360;2022-07-12T09:29:13;28.60;1.00
39401;DHT22;54391;50.000;7.360;2022-07-12T09:31:43;29.40;1.00
39401;DHT22;54391;50.000;7.360;2022-07-12T09:34:26;29.30;1.00
39401;DHT22;54391;50.000;7.360;2022-07-12T09:37:11;29.60;1.00
39401;DHT22;54391;50.000;7.360;2022-07-12T09:39:39;30.00;1.00
39401;DHT22;54391;50.000;7.360;2022-07-12T09:42:08;29.50;1.00
39401;DHT22;54391;50.000;7.360;2022-07-12T09:44:36;30.30;1.00
39401;DHT22;54391;50.000;7.360;2022-07-12T09:47:06;29.70;1.00
39401;DHT22;54391;50.000;7.360;2022-07-12T09:49:35;29.40;1.00
39401;DHT22;54391;50.000;7.360;2022-07-12T09:52:05;29.10;1.00
39401;DHT22;54391;50.000;7.360;2022-07-12T09:54:35;29.50;1.00
39401;DHT22;54391;50.000;7.360;2022-07-12T09:57:12;29.10;1.00
39401;DHT22;54391;50.000;7.360;2022-07-12T09:59:41;29.30;1.00
39401;DHT22;54391;50.000;7.360;2022-07-12T10:02:09;29.20;1.00
39401;DHT22;54391;50.000;7.360;2022-07-12T10:04:42;29.40;1.00
39401;DHT22;54391;50.000;7.360;2022-07-12T10:07:10;29.90;1.00
39401;DHT22;54391;50.000;7.360;2022-07-12T10:09:40;29.90;1.00
39401;DHT22;54391;50.000;7.360;2022-07-12T10:12:09;30.10;1.00
39401;DHT22;54391;50.000;7.360;2022-07-12T10:14:37;30.00;1.00
39401;DHT22;54391;50.000;7.360;2022-07-12T10:17:06;29.70;1.00
39401;DHT22;54391;50.000;7.360;2022-07-12T10:19:36;30.10;1.00
39401;DHT22;54391;50.000;7.360;2022-07-12T10:22:07;30.00;1.00
39401;DHT22;54391;50.000;7.360;2022-07-12T10:24:48;30.70;1.00
39401;DHT22;54391;50.000;7.360;2022-07-12T10:27:31;30.10;1.00
39401;DHT22;54391;50.000;7.360;2022-07-12T10:30:15;29.40;1.00
39401;DHT22;54391;50.000;7.360;2022-07-12T10:32:44;29.90;1.00
39401;DHT22;54391;50.000;7.360;2022-07-12T10:35:14;30.20;1.00
39401;DHT22;54391;50.000;7.360;2022-07-12T10:38:19;30.70;1.00
39401;DHT22;54391;50.000;7.360;2022-07-12T10:40:48;30.30;1.00
39401;DHT22;54391;50.000;7.360;2022-07-12T10:43:24;30.70;1.00
39401;DHT22;54391;50.000;7.360;2022-07-12T10:46:16;30.20;1.00
39401;DHT22;54391;50.000;7.360;2022-07-12T10:48:46;30.00;1.00
39401;DHT22;54391;50.000;7.360;2022-07-12T10:51:15;30.20;1.00
39401;DHT22;54391;50.000;7.360;2022-07-12T10:53:44;31.60;1.00
39401;DHT22;54391;50.000;7.360;2022-07-12T10:56:19;31.40;1.00
39401;DHT22;54391;50.000;7.360;2022-07-12T10:58:48;30.90;1.00
39401;DHT22;54391;50.000;7.360;2022-07-12T11:01:19;30.90;1.00
39401;DHT22;54391;50.000;7.360;2022-07-12T11:03:47;30.90;1.00
39401;DHT22;54391;50.000;7.360;2022-07-12T11:06:16;30.20;1.00
39401;DHT22;54391;50.000;7.360;2022-07-12T11:08:53;30.30;1.00
39401;DHT22;54391;50.000;7.360;2022-07-12T11:11:22;30.40;1.00
39401;DHT22;54391;50.000;7.360;2022-07-12T11:13:52;30.40;1.00
39401;DHT22;54391;50.000;7.360;2022-07-12T11:16:21;29.80;1.00
39401;DHT22;54391;50.000;7.360;2022-07-12T11:18:49;30.10;1.00
39401;DHT22;54391;50.000;7.360;2022-07-12T11:21:17;30.50;1.00
39401;DHT22;54391;50.000;7.360;2022-07-12T11:23:45;30.40;1.00
39401;DHT22;54391;50.000;7.360;2022-07-12T11:26:15;29.60;1.00
39401;DHT22;54391;50.000;7.360;2022-07-12T11:28:44;29.70;1.00
39401;DHT22;54391;50.000;7.360;2022-07-12T11:31:14;30.00;1.00
39401;DHT22;54391;50.000;7.360;2022-07-12T11:33:44;29.90;1.00
39401;DHT22;54391;50.000;7.360;2022-07-12T11:36:13;28.40;1.00
39401;DHT22;54391;50.000;7.360;2022-07-12T11:38:42;28.70;1.00
39401;DHT22;54391;50.000;7.360;2022-07-12T11:41:10;29.10;1.00
39401;DHT22;54391;50.000;7.360;2022-07-12T11:43:40;29.30;1.00
39401;DHT22;54391;50.000;7.360;2022-07-12T11:46:09;29.90;1.00
39401;DHT22;54391;50.000;7.360;2022-07-12T11:48:37;29.80;1.00
39401;DHT22;54391;50.000;7.360;2022-07-12T11:51:06;29.60;1.00
39401;DHT22;54391;50.000;7.360;2022-07-12T11:53:35;29.30;1.00
39401;DHT22;54391;50.000;7.360;2022-07-12T11:56:04;29.00;1.00
39401;DHT22;54391;50.000;7.360;2022-07-12T11:58:33;28.70;1.00
39401;DHT22;54391;50.000;7.360;2022-07-12T12:01:09;27.70;1.00
39401;DHT22;54391;50.000;7.360;2022-07-12T12:03:43;27.90;1.00
39401;DHT22;54391;50.000;7.360;2022-07-12T12:06:11;28.30;1.00
39401;DHT22;54391;50.000;7.360;2022-07-12T12:08:38;28.20;1.00
39401;DHT22;54391;50.000;7.360;2022-07-12T12:11:06;28.40;1.00
39401;DHT22;54391;50.000;7.360;2022-07-12T12:13:33;28.80;1.00
39401;DHT22;54391;50.000;7.360;2022-07-12T12:16:02;28.40;1.00
39401;DHT22;54391;50.000;7.360;2022-07-12T12:18:34;28.40;1.00
39401;DHT22;54391;50.000;7.360;2022-07-12T12:21:03;28.20;1.00
39401;DHT22;54391;50.000;7.360;2022-07-12T12:23:32;28.60;1.00
39401;DHT22;54391;50.000;7.360;2022-07-12T12:26:14;28.70;1.00
39401;DHT22;54391;50.000;7.360;2022-07-12T12:28:43;28.80;1.00
39401;DHT22;54391;50.000;7.360;2022-07-12T12:31:11;28.40;1.00
39401;DHT22;54391;50.000;7.360;2022-07-12T12:33:41;28.40;1.00
39401;DHT22;54391;50.000;7.360;2022-07-12T12:36:14;28.00;1.00
39401;DHT22;54391;50.000;7.360;2022-07-12T12:38:42;27.90;1.00
39401;DHT22;54391;50.000;7.360;2022-07-12T12:41:10;28.50;1.00
39401;DHT22;54391;50.000;7.360;2022-07-12T12:43:38;28.70;1.00
39401;DHT22;54391;50.000;7.360;2022-07-12T12:46:06;29.00;1.00
39401;DHT22;54391;50.000;7.360;2022-07-12T12:48:34;28.90;1.00
39401;DHT22;54391;50.000;7.360;2022-07-12T12:51:05;28.50;1.00
39401;DHT22;54391;50.000;7.360;2022-07-12T12:53:34;28.50;1.00
39401;DHT22;54391;50.000;7.360;2022-07-12T12:56:06;28.20;1.00
39401;DHT22;54391;50.000;7.360;2022-07-12T12:58:34;28.20;1.00
39401;DHT22;54391;50.000;7.360;2022-07-12T13:01:02;28.40;1.00
39401;DHT22;54391;50.000;7.360;2022-07-12T13:03:30;28.50;1.00
39401;DHT22;54391;50.000;7.360;2022-07-12T13:05:58;28.50;1.00
39401;DHT22;54391;50.000;7.360;2022-07-12T13:08:27;28.50;1.00
39401;DHT22;54391;50.000;7.360;2022-07-12T13:10:55;28.20;1.00
39401;DHT22;54391;50.000;7.360;2022-07-12T13:13:40;28.40;1.00
39401;DHT22;54391;50.000;7.360;2022-07-12T13:16:09;28.10;1.00
39401;DHT22;54391;50.000;7.360;2022-07-12T13:18:36;28.10;1.00
39401;DHT22;54391;50.000;7.360;2022-07-12T13:21:04;27.70;1.00
39401;DHT22;54391;50.000;7.360;2022-07-12T13:23:33;28.20;1.00
39401;DHT22;54391;50.000;7.360;2022-07-12T13:26:00;28.30;1.00
39401;DHT22;54391;50.000;7.360;2022-07-12T13:28:29;28.30;1.00
39401;DHT22;54391;50.000;7.360;2022-07-12T13:30:58;28.40;1.00
39401;DHT22;54391;50.000;7.360;2022-07-12T13:33:28;28.30;1.00
39401;DHT22;54391;50.000;7.360;2022-07-12T13:35:57;28.10;1.00
39401;DHT22;54391;50.000;7.360;2022-07-12T13:38:24;28.10;1.00
39401;DHT22;54391;50.000;7.360;2022-07-12T13:40:54;27.90;1.00
39401;DHT22;54391;50.000;7.360;2022-07-12T13:43:21;27.40;1.00
39401;DHT22;54391;50.000;7.360;2022-07-12T13:45:50;27.60;1.00
39401;DHT22;54391;50.000;7.360;2022-07-12T13:48:18;27.70;1.00
39401;DHT22;54391;50.000;7.360;2022-07-12T13:50:45;27.70;1.00
39401;DHT22;54391;50.000;7.360;2022-07-12T13:53:14;27.80;1.00
39401;DHT22;54391;50.000;7.360;2022-07-12T13:55:42;28.40;1.00
39401;DHT22;54391;50.000;7.360;2022-07-12T13:58:11;28.40;1.00
39401;DHT22;54391;50.000;7.360;2022-07-12T14:00:39;30.10;1.00
39401;DHT22;54391;50.000;7.360;2022-07-12T14:03:07;28.20;1.00
39401;DHT22;54391;50.000;7.360;2022-07-12T14:05:35;27.90;1.00
39401;DHT22;54391;50.000;7.360;2022-07-12T14:08:03;27.80;1.00
39401;DHT22;54391;50.000;7.360;2022-07-12T14:10:31;27.80;1.00
39401;DHT22;54391;50.000;7.360;2022-07-12T14:12:59;28.00;1.00
39401;DHT22;54391;50.000;7.360;2022-07-12T14:15:29;28.20;1.00
39401;DHT22;54391;50.000;7.360;2022-07-12T14:18:04;28.20;1.00
39401;DHT22;54391;50.000;7.360;2022-07-12T14:20:33;28.20;1.00
39401;DHT22;54391;50.000;7.360;2022-07-12T14:23:01;27.80;1.00
39401;DHT22;54391;50.000;7.360;2022-07-12T14:25:28;27.70;1.00
39401;DHT22;54391;50.000;7.360;2022-07-12T14:27:56;27.90;1.00
39401;DHT22;54391;50.000;7.360;2022-07-12T14:30:23;27.00;1.00
39401;DHT22;54391;50.000;7.360;2022-07-12T14:32:52;27.90;1.00
39401;DHT22;54391;50.000;7.360;2022-07-12T14:35:20;28.10;1.00
39401;DHT22;54391;50.000;7.360;2022-07-12T14:37:47;28.40;1.00
39401;DHT22;54391;50.000;7.360;2022-07-12T14:40:15;28.50;1.00
39401;DHT22;54391;50.000;7.360;2022-07-12T14:42:43;28.40;1.00
39401;DHT22;54391;50.000;7.360;2022-07-12T14:45:10;28.60;1.00
39401;DHT22;54391;50.000;7.360;2022-07-12T14:47:38;28.60;1.00
39401;DHT22;54391;50.000;7.360;2022-07-12T14:50:08;25.30;1.00
39401;DHT22;54391;50.000;7.360;2022-07-12T14:52:37;28.40;1.00
39401;DHT22;54391;50.000;7.360;2022-07-12T14:55:05;28.50;1.00
39401;DHT22;54391;50.000;7.360;2022-07-12T14:57:32;28.30;1.00
39401;DHT22;54391;50.000;7.360;2022-07-12T15:00:00;28.20;1.00
39401;DHT22;54391;50.000;7.360;2022-07-12T15:02:27;28.30;1.00
39401;DHT22;54391;50.000;7.360;2022-07-12T15:04:55;28.30;1.00
39401;DHT22;54391;50.000;7.360;2022-07-12T15:07:23;28.40;1.00
39401;DHT22;54391;50.000;7.360;2022-07-12T15:09:51;28.40;1.00
39401;DHT22;54391;50.000;7.360;2022-07-12T15:12:18;28.40;1.00
39401;DHT22;54391;50.000;7.360;2022-07-12T15:14:46;28.40;1.00
39401;DHT22;54391;50.000;7.360;2022-07-12T15:17:13;28.30;1.00
39401;DHT22;54391;50.000;7.360;2022-07-12T15:19:42;28.10;1.00
39401;DHT22;54391;50.000;7.360;2022-07-12T15:22:10;28.00;1.00
39401;DHT22;54391;50.000;7.360;2022-07-12T15:24:40;28.20;1.00
39401;DHT22;54391;50.000;7.360;2022-07-12T15:27:09;28.10;1.00
39401;DHT22;54391;50.000;7.360;2022-07-12T15:29:37;28.20;1.00
39401;DHT22;54391;50.000;7.360;2022-07-12T15:32:06;28.30;1.00
39401;DHT22;54391;50.000;7.360;2022-07-12T15:34:34;28.30;1.00
39401;DHT22;54391;50.000;7.360;2022-07-12T15:37:01;28.40;1.00
39401;DHT22;54391;50.000;7.360;2022-07-12T15:39:29;28.50;1.00
39401;DHT22;54391;50.000;7.360;2022-07-12T15:41:58;28.50;1.00
39401;DHT22;54391;50.000;7.360;2022-07-12T15:44:26;28.40;1.00
39401;DHT22;54391;50.000;7.360;2022-07-12T15:46:54;28.40;1.00
39401;DHT22;54391;50.000;7.360;2022-07-12T15:49:21;28.20;1.00
39401;DHT22;54391;50.000;7.360;2022-07-12T15:51:48;27.70;1.00